createdAt,value
2018-03-21T00:00:53.340Z,102120.30
2018-03-21T00:03:19.667Z,102120.47
2018-03-21T00:05:45.805Z,102134.19
2018-03-21T00:08:11.722Z,102135.12
2018-03-21T00:10:37.614Z,102129.65
2018-03-21T00:13:03.520Z,102128.94
2018-03-21T00:15:29.704Z,102128.89
2018-03-21T00:17:56.528Z,102134.39
2018-03-21T00:20:22.455Z,102135.86
2018-03-21T00:22:48.737Z,102135.80
2018-03-21T00:25:15.161Z,102136.89
2018-03-21T00:27:41.378Z,102145.06
2018-03-21T00:30:07.681Z,102147.64
2018-03-21T00:32:33.920Z,102146.00
2018-03-21T00:35:00.293Z,102146.92
2018-03-21T00:37:26.493Z,102151.70
2018-03-21T00:39:52.668Z,102151.48
2018-03-21T00:42:18.552Z,102152.27
2018-03-21T00:44:44.414Z,102157.77
2018-03-21T00:47:10.320Z,102159.45
2018-03-21T00:49:36.237Z,102156.34
2018-03-21T00:52:02.081Z,102156.58
2018-03-21T00:54:27.928Z,102163.62
2018-03-21T00:56:53.831Z,102165.16
2018-03-21T00:59:19.693Z,102161.55
2018-03-21T01:01:45.558Z,102165.07
2018-03-21T01:04:11.469Z,102167.05
2018-03-21T01:06:37.316Z,102158.66
2018-03-21T01:09:03.188Z,102160.36
2018-03-21T01:11:29.133Z,102166.70
2018-03-21T01:13:55.656Z,102170.08
2018-03-21T01:16:21.509Z,102175.87
2018-03-21T01:18:47.396Z,102180.84
2018-03-21T01:21:13.261Z,102187.16
2018-03-21T01:23:39.116Z,102185.09
2018-03-21T01:26:05.018Z,102185.46
2018-03-21T01:28:30.868Z,102185.57
2018-03-21T01:30:56.717Z,102185.86
2018-03-21T01:33:22.616Z,102185.23
2018-03-21T01:35:48.481Z,102186.91
2018-03-21T01:38:14.332Z,102193.04
2018-03-21T01:40:40.258Z,102186.13
2018-03-21T01:43:06.129Z,102193.85
2018-03-21T01:45:32.001Z,102189.27
2018-03-21T01:47:57.957Z,102195.51
2018-03-21T01:50:23.804Z,102202.73
2018-03-21T01:53:01.985Z,102191.66
2018-03-21T01:55:27.833Z,102205.89
2018-03-21T01:57:53.746Z,102198.27
2018-03-21T02:00:19.646Z,102206.42
2018-03-21T02:02:45.509Z,102207.47
2018-03-21T02:05:11.364Z,102209.59
2018-03-21T02:07:37.721Z,102200.94
2018-03-21T02:10:03.704Z,102213.01
2018-03-21T02:12:29.558Z,102206.73
2018-03-21T02:14:55.494Z,102209.53
2018-03-21T02:17:21.345Z,102214.03
2018-03-21T02:19:47.392Z,102211.72
2018-03-21T02:22:13.445Z,102212.86
2018-03-21T02:24:39.304Z,102205.73
2018-03-21T02:27:05.161Z,102207.52
2018-03-21T02:29:31.044Z,102210.82
2018-03-21T02:31:56.911Z,102216.02
2018-03-21T02:34:22.792Z,102209.34
2018-03-21T02:36:48.689Z,102220.41
2018-03-21T02:39:14.536Z,102214.28
2018-03-21T02:41:40.394Z,102218.88
2018-03-21T02:44:06.298Z,102213.44
2018-03-21T02:46:32.141Z,102215.42
2018-03-21T02:48:58.038Z,102216.45
2018-03-21T02:51:23.940Z,102217.29
2018-03-21T02:53:49.777Z,102213.48
2018-03-21T02:56:15.650Z,102214.66
2018-03-21T02:58:41.563Z,102207.55
2018-03-21T03:01:07.593Z,102208.63
2018-03-21T03:03:33.452Z,102210.41
2018-03-21T03:05:59.342Z,102214.16
2018-03-21T03:08:25.193Z,102212.69
2018-03-21T03:10:51.045Z,102214.22
2018-03-21T03:13:16.989Z,102208.84
2018-03-21T03:15:42.870Z,102208.10
2018-03-21T03:18:08.744Z,102213.36
2018-03-21T03:20:34.636Z,102207.41
2018-03-21T03:23:00.508Z,102210.38
2018-03-21T03:25:26.361Z,102211.41
2018-03-21T03:27:52.245Z,102213.08
2018-03-21T03:30:18.109Z,102204.77
2018-03-21T03:32:43.964Z,102210.89
2018-03-21T03:35:09.860Z,102211.53
2018-03-21T03:37:35.709Z,102217.45
2018-03-21T03:40:01.552Z,102219.08
2018-03-21T03:42:27.449Z,102213.64
2018-03-21T03:44:53.304Z,102214.63
2018-03-21T03:47:19.146Z,102218.68
2018-03-21T03:49:45.093Z,102219.52
2018-03-21T03:52:10.943Z,102217.94
2018-03-21T03:54:36.785Z,102221.45
2018-03-21T03:57:02.706Z,102218.88
2018-03-21T03:59:28.657Z,102218.04
2018-03-21T04:01:54.500Z,102223.08
2018-03-21T04:04:20.400Z,102224.54
2018-03-21T04:06:46.328Z,102218.53
2018-03-21T04:09:12.186Z,102215.87
2018-03-21T04:11:38.082Z,102220.78
2018-03-21T04:14:04.053Z,102223.20
2018-03-21T04:16:29.905Z,102224.24
2018-03-21T04:18:55.797Z,102224.66
2018-03-21T04:21:21.640Z,102229.49
2018-03-21T04:23:47.501Z,102229.25
2018-03-21T04:26:13.396Z,102229.05
2018-03-21T04:28:39.242Z,102231.95
2018-03-21T04:31:05.096Z,102227.72
2018-03-21T04:33:30.993Z,102221.40
2018-03-21T04:35:56.841Z,102227.63
2018-03-21T04:38:22.684Z,102226.25
2018-03-21T04:40:48.581Z,102220.80
2018-03-21T04:43:14.416Z,102216.91
2018-03-21T04:45:40.276Z,102218.45
2018-03-21T04:48:06.198Z,102210.98
2018-03-21T04:50:32.166Z,102216.03
2018-03-21T04:52:58.020Z,102211.03
2018-03-21T04:55:24.113Z,102216.77
2018-03-21T04:57:49.984Z,102215.59
2018-03-21T05:00:15.967Z,102218.92
2018-03-21T05:02:41.870Z,102214.63
2018-03-21T05:05:07.756Z,102216.56
2018-03-21T05:07:33.612Z,102223.91
2018-03-21T05:09:59.497Z,102220.30
2018-03-21T05:12:25.368Z,102221.98
2018-03-21T05:14:51.216Z,102223.20
2018-03-21T05:17:17.110Z,102233.74
2018-03-21T05:19:42.961Z,102219.17
2018-03-21T05:22:08.814Z,102234.88
2018-03-21T05:24:34.801Z,102226.78
2018-03-21T05:27:00.653Z,102223.94
2018-03-21T05:29:26.498Z,102233.77
2018-03-21T05:31:52.406Z,102239.69
2018-03-21T05:34:18.258Z,102227.30
2018-03-21T05:36:44.130Z,102235.70
2018-03-21T05:39:10.046Z,102236.31
2018-03-21T05:41:35.896Z,102238.09
2018-03-21T05:44:01.734Z,102241.32
2018-03-21T05:46:27.612Z,102234.45
2018-03-21T05:48:53.465Z,102235.23
2018-03-21T05:51:19.367Z,102233.22
2018-03-21T05:53:46.123Z,102229.02
2018-03-21T05:56:11.982Z,102234.55
2018-03-21T05:58:37.824Z,102223.95
2018-03-21T06:01:03.729Z,102233.20
2018-03-21T06:03:29.574Z,102234.45
2018-03-21T06:05:55.428Z,102239.88
2018-03-21T06:08:21.317Z,102236.92
2018-03-21T06:10:47.165Z,102236.04
2018-03-21T06:13:13.018Z,102236.85
2018-03-21T06:15:39.829Z,102233.30
2018-03-21T06:18:05.684Z,102239.66
2018-03-21T06:20:31.528Z,102241.58
2018-03-21T06:22:57.426Z,102242.57
2018-03-21T06:25:23.277Z,102238.37
2018-03-21T06:27:49.264Z,102240.52
2018-03-21T06:30:15.161Z,102243.27
2018-03-21T06:32:41.004Z,102241.09
2018-03-21T06:35:06.849Z,102243.23
2018-03-21T06:37:32.742Z,102247.22
2018-03-21T06:39:58.612Z,102254.36
2018-03-21T06:42:24.477Z,102259.52
2018-03-21T06:44:50.377Z,102262.59
2018-03-21T06:47:16.220Z,102260.37
2018-03-21T06:49:42.074Z,102256.83
2018-03-21T06:52:08.041Z,102259.70
2018-03-21T06:54:33.893Z,102262.88
2018-03-21T06:56:59.745Z,102268.34
2018-03-21T06:59:25.682Z,102267.97
2018-03-21T07:01:51.522Z,102267.95
2018-03-21T07:04:17.373Z,102273.03
2018-03-21T07:06:43.265Z,102266.30
2018-03-21T07:09:09.116Z,102277.91
2018-03-21T07:11:34.973Z,102274.13
2018-03-21T07:14:13.341Z,102275.69
2018-03-21T07:16:40.969Z,102273.02
2018-03-21T07:19:06.917Z,102276.11
2018-03-21T07:21:32.816Z,102275.08
2018-03-21T07:23:58.669Z,102277.19
2018-03-21T07:26:24.527Z,102280.33
2018-03-21T07:28:50.429Z,102284.52
2018-03-21T07:31:16.296Z,102286.98
2018-03-21T07:33:42.190Z,102286.41
2018-03-21T07:36:08.113Z,102284.46
2018-03-21T07:38:33.960Z,102280.45
2018-03-21T07:40:59.804Z,102282.05
2018-03-21T07:43:25.687Z,102282.30
2018-03-21T07:45:51.556Z,102283.36
2018-03-21T07:48:17.453Z,102272.12
2018-03-21T07:50:43.366Z,102287.59
2018-03-21T07:53:09.309Z,102287.63
2018-03-21T07:55:35.176Z,102289.84
2018-03-21T07:58:01.073Z,102291.31
2018-03-21T08:00:26.938Z,102288.56
2018-03-21T08:02:52.780Z,102291.69
2018-03-21T08:05:18.774Z,102294.86
2018-03-21T08:07:44.661Z,102288.98
2018-03-21T08:10:10.604Z,102296.80
2018-03-21T08:12:36.492Z,102296.52
2018-03-21T08:15:02.406Z,102291.17
2018-03-21T08:17:28.284Z,102289.41
2018-03-21T08:19:54.165Z,102287.55
2018-03-21T08:22:20.048Z,102291.42
2018-03-21T08:24:45.897Z,102291.27
2018-03-21T08:27:11.897Z,102296.39
2018-03-21T08:29:37.745Z,102299.31
2018-03-21T08:32:03.613Z,102300.19
2018-03-21T08:34:29.621Z,102300.22
2018-03-21T08:36:55.472Z,102303.23
2018-03-21T08:39:21.417Z,102300.39
2018-03-21T08:41:47.330Z,102296.15
2018-03-21T08:44:13.180Z,102293.70
2018-03-21T08:46:39.189Z,102294.03
2018-03-21T08:49:05.107Z,102294.20
2018-03-21T08:51:30.990Z,102290.64
2018-03-21T08:53:56.844Z,102290.07
2018-03-21T08:56:22.725Z,102286.14
2018-03-21T08:58:48.568Z,102286.08
2018-03-21T09:01:14.433Z,102289.67
2018-03-21T09:03:40.336Z,102286.34
2018-03-21T09:06:06.190Z,102277.42
2018-03-21T09:08:32.069Z,102280.29
2018-03-21T09:10:57.957Z,102278.30
2018-03-21T09:13:23.802Z,102272.36
2018-03-21T09:15:49.805Z,102273.03
2018-03-21T09:18:15.728Z,102267.25
2018-03-21T09:20:41.656Z,102270.70
2018-03-21T09:23:08.399Z,102265.53
2018-03-21T09:25:34.296Z,102273.00
2018-03-21T09:28:00.194Z,102271.60
2018-03-21T09:30:26.048Z,102276.48
2018-03-21T09:32:51.949Z,102272.11
2018-03-21T09:35:17.817Z,102267.88
2018-03-21T09:37:43.666Z,102263.37
2018-03-21T09:40:09.642Z,102265.20
2018-03-21T09:42:35.513Z,102266.38
2018-03-21T09:45:01.361Z,102271.50
2018-03-21T09:47:27.232Z,102273.83
2018-03-21T09:49:53.079Z,102272.11
2018-03-21T09:52:18.930Z,102258.64
2018-03-21T09:54:44.818Z,102264.12
2018-03-21T09:57:10.688Z,102262.53
2018-03-21T09:59:36.546Z,102261.30
2018-03-21T10:02:02.529Z,102244.95
2018-03-21T10:04:28.385Z,102245.23
2018-03-21T10:06:54.766Z,102242.05
2018-03-21T10:09:20.689Z,102247.91
2018-03-21T10:11:46.551Z,102236.13
2018-03-21T10:14:12.421Z,102228.80
2018-03-21T10:16:38.332Z,102236.18
2018-03-21T10:19:04.450Z,102233.61
2018-03-21T10:21:30.306Z,102218.77
2018-03-21T10:23:57.209Z,102226.48
2018-03-21T10:26:23.573Z,102227.68
2018-03-21T10:28:49.525Z,102232.14
2018-03-21T10:31:15.422Z,102224.00
2018-03-21T10:33:41.357Z,102224.66
2018-03-21T10:36:07.208Z,102225.70
2018-03-21T10:38:33.514Z,102225.92
2018-03-21T10:40:59.388Z,102221.54
2018-03-21T10:43:25.270Z,102212.49
2018-03-21T10:45:51.185Z,102221.55
2018-03-21T10:48:17.049Z,102216.59
2018-03-21T10:50:42.985Z,102211.70
2018-03-21T10:53:08.874Z,102218.36
2018-03-21T10:55:34.960Z,102219.58
2018-03-21T10:58:00.832Z,102218.34
2018-03-21T11:00:26.850Z,102218.16
2018-03-21T11:02:58.773Z,102217.81
2018-03-21T11:05:24.846Z,102214.16
2018-03-21T11:07:50.776Z,102211.70
2018-03-21T11:10:16.640Z,102205.58
2018-03-21T11:12:42.497Z,102216.54
2018-03-21T11:15:08.410Z,102207.70
2018-03-21T11:17:34.387Z,102205.94
2018-03-21T11:20:00.256Z,102199.41
2018-03-21T11:22:26.254Z,102201.30
2018-03-21T11:24:52.193Z,102196.74
2018-03-21T11:27:18.068Z,102198.95
2018-03-21T11:29:44.024Z,102208.52
2018-03-21T11:32:09.870Z,102202.30
2018-03-21T11:34:35.821Z,102207.61
2018-03-21T11:37:01.713Z,102192.55
2018-03-21T11:39:27.569Z,102199.41
2018-03-21T11:41:53.413Z,102196.46
2018-03-21T11:44:19.320Z,102193.40
2018-03-21T11:46:45.168Z,102193.85
2018-03-21T11:49:11.035Z,102198.80
2018-03-21T11:51:36.942Z,102175.20
2018-03-21T11:54:02.914Z,102183.59
2018-03-21T11:56:28.840Z,102189.73
2018-03-21T11:58:54.709Z,102180.06
2018-03-21T12:01:20.576Z,102181.48
2018-03-21T12:03:46.426Z,102174.12
2018-03-21T12:06:12.317Z,102171.55
2018-03-21T12:08:38.229Z,102168.02
2018-03-21T12:11:04.161Z,102166.67
2018-03-21T12:13:30.073Z,102170.03
2018-03-21T12:15:55.957Z,102165.41
2018-03-21T12:18:21.809Z,102165.72
2018-03-21T12:20:47.711Z,102161.31
2018-03-21T12:23:13.590Z,102161.87
2018-03-21T12:25:39.442Z,102161.29
2018-03-21T12:28:05.337Z,102157.50
2018-03-21T12:30:31.244Z,102157.02
2018-03-21T12:32:57.108Z,102145.43
2018-03-21T12:35:23.077Z,102145.63
2018-03-21T12:37:48.924Z,102140.08
2018-03-21T12:40:14.765Z,102149.17
2018-03-21T12:42:40.661Z,102143.06
2018-03-21T12:45:06.509Z,102137.98
2018-03-21T12:47:32.369Z,102138.83
2018-03-21T12:49:58.297Z,102137.83
2018-03-21T12:52:24.133Z,102139.71
2018-03-21T12:54:50.065Z,102146.72
2018-03-21T12:57:15.978Z,102131.65
2018-03-21T12:59:41.853Z,102123.87
2018-03-21T13:02:07.718Z,102132.16
2018-03-21T13:04:33.626Z,102139.05
2018-03-21T13:06:59.497Z,102128.16
2018-03-21T13:09:25.410Z,102126.56
2018-03-21T13:11:51.319Z,102122.13
2018-03-21T13:14:17.183Z,102117.13
2018-03-21T13:16:43.051Z,102115.39
2018-03-21T13:19:08.949Z,102114.63
2018-03-21T13:21:34.805Z,102102.31
2018-03-21T13:24:00.737Z,102109.17
2018-03-21T13:26:26.643Z,102108.78
2018-03-21T13:28:52.607Z,102110.14
2018-03-21T13:31:18.525Z,102108.21
2018-03-21T13:33:44.449Z,102105.96
2018-03-21T13:36:10.314Z,102114.06
2018-03-21T13:38:36.174Z,102100.03
2018-03-21T13:41:02.072Z,102105.81
2018-03-21T13:43:27.921Z,102105.33
2018-03-21T13:45:53.773Z,102101.75
2018-03-21T13:48:19.753Z,102096.55
2018-03-21T13:50:45.612Z,102093.36
2018-03-21T13:53:11.470Z,102107.23
2018-03-21T13:55:37.379Z,102102.39
2018-03-21T13:58:03.310Z,102101.63
2018-03-21T14:00:29.162Z,102108.61
2018-03-21T14:02:55.075Z,102114.30
2018-03-21T14:05:20.971Z,102116.25
2018-03-21T14:07:46.846Z,102110.59
2018-03-21T14:10:12.741Z,102104.47
2018-03-21T14:12:38.588Z,102107.95
2018-03-21T14:15:04.448Z,102110.91
2018-03-21T14:17:30.326Z,102104.83
2018-03-21T14:19:56.168Z,102101.18
2018-03-21T14:22:22.019Z,102094.29
2018-03-21T14:24:47.929Z,102094.76
2018-03-21T14:27:13.793Z,102097.19
2018-03-21T14:29:39.645Z,102100.61
2018-03-21T14:32:05.593Z,102083.48
2018-03-21T14:34:31.447Z,102080.91
2018-03-21T14:36:57.305Z,102069.69
2018-03-21T14:39:23.225Z,102070.69
2018-03-21T14:41:49.081Z,102066.33
2018-03-21T14:44:14.932Z,102071.94
2018-03-21T14:46:40.833Z,102063.55
2018-03-21T14:49:06.701Z,102060.08
2018-03-21T14:51:32.567Z,102055.75
2018-03-21T14:53:58.468Z,102058.34
2018-03-21T14:56:24.338Z,102052.12
2018-03-21T14:58:50.194Z,102051.42
2018-03-21T15:01:16.091Z,102049.24
2018-03-21T15:03:41.962Z,102043.67
2018-03-21T15:06:07.834Z,102038.81
2018-03-21T15:08:33.810Z,102037.05
2018-03-21T15:10:59.670Z,102036.92
2018-03-21T15:13:25.525Z,102033.48
2018-03-21T15:15:51.426Z,102033.45
2018-03-21T15:18:17.284Z,102032.27
2018-03-21T15:20:43.137Z,102027.16
2018-03-21T15:23:09.032Z,102025.06
2018-03-21T15:25:34.882Z,102022.78
2018-03-21T15:28:00.730Z,102034.12
2018-03-21T15:30:26.733Z,102026.66
2018-03-21T15:32:52.645Z,102019.69
2018-03-21T15:35:18.500Z,102023.95
2018-03-21T15:37:44.389Z,102024.28
2018-03-21T15:40:10.265Z,102020.27
2018-03-21T15:42:36.105Z,102013.70
2018-03-21T15:45:02.006Z,102019.45
2018-03-21T15:47:27.890Z,102021.44
2018-03-21T15:49:53.761Z,102015.33
2018-03-21T15:52:19.664Z,102019.69
2018-03-21T15:54:45.504Z,102011.84
2018-03-21T15:57:11.361Z,102017.36
2018-03-21T15:59:37.256Z,102019.41
2018-03-21T16:02:03.119Z,102020.63
2018-03-21T16:04:28.974Z,102019.11
2018-03-21T16:06:54.882Z,102009.82
2018-03-21T16:09:20.760Z,102026.83
2018-03-21T16:11:46.637Z,102018.11
2018-03-21T16:14:12.550Z,102017.03
2018-03-21T16:16:38.413Z,102015.06
2018-03-21T16:19:04.278Z,102025.09
2018-03-21T16:21:30.176Z,102022.63
2018-03-21T16:23:56.038Z,102018.47
2018-03-21T16:26:21.894Z,102018.55
2018-03-21T16:28:47.794Z,102023.48
2018-03-21T16:31:13.695Z,102021.70
2018-03-21T16:33:39.621Z,102013.70
2018-03-21T16:36:05.529Z,102011.14
2018-03-21T16:38:31.397Z,102010.50
2018-03-21T16:40:57.259Z,102014.73
2018-03-21T16:43:23.161Z,102008.73
2018-03-21T16:45:49.020Z,102004.67
2018-03-21T16:48:14.878Z,102006.33
2018-03-21T16:50:40.792Z,102019.09
2018-03-21T16:53:06.641Z,102012.27
2018-03-21T16:55:32.501Z,102016.87
2018-03-21T16:57:58.406Z,102016.16
2018-03-21T17:00:24.270Z,102007.12
2018-03-21T17:02:50.118Z,102002.14
2018-03-21T17:05:16.004Z,102020.30
2018-03-21T17:07:41.866Z,102008.09
2018-03-21T17:10:07.925Z,102017.89
2018-03-21T17:12:33.833Z,102012.41
2018-03-21T17:14:59.699Z,102014.09
2018-03-21T17:17:25.554Z,102019.04
2018-03-21T17:19:51.456Z,102021.02
2018-03-21T17:22:17.324Z,102017.75
2018-03-21T17:24:43.200Z,102014.62
2018-03-21T17:27:09.116Z,102015.47
2018-03-21T17:29:34.992Z,102019.98
2018-03-21T17:32:00.921Z,102014.82
2018-03-21T17:34:26.930Z,102015.89
2018-03-21T17:36:52.882Z,102008.81
2018-03-21T17:39:18.810Z,102011.89
2018-03-21T17:41:44.800Z,102016.22
2018-03-21T17:44:10.667Z,102003.64
2018-03-21T17:46:36.604Z,102007.65
2018-03-21T17:49:02.617Z,102013.47
2018-03-21T17:51:28.498Z,101999.84
2018-03-21T17:53:54.362Z,102005.31
2018-03-21T17:56:20.310Z,101995.73
2018-03-21T17:58:46.179Z,101996.44
2018-03-21T18:01:12.083Z,101998.58
2018-03-21T18:03:37.990Z,101997.84
2018-03-21T18:06:03.850Z,101993.27
2018-03-21T18:08:29.693Z,101988.37
2018-03-21T18:10:55.601Z,101987.66
2018-03-21T18:13:21.465Z,101995.05
2018-03-21T18:15:47.308Z,101995.69
2018-03-21T18:18:13.202Z,101995.14
2018-03-21T18:20:39.162Z,101998.33
2018-03-21T18:23:05.018Z,101991.30
2018-03-21T18:25:31.058Z,101995.20
2018-03-21T18:27:56.961Z,101985.83
2018-03-21T18:30:22.834Z,101983.77
2018-03-21T18:32:49.054Z,101984.12
2018-03-21T18:35:15.078Z,101977.60
2018-03-21T18:37:41.023Z,101978.66
2018-03-21T18:40:06.918Z,101979.52
2018-03-21T18:42:32.786Z,101973.03
2018-03-21T18:44:58.652Z,101972.74
2018-03-21T18:47:24.627Z,101971.30
2018-03-21T18:49:50.471Z,101963.83
2018-03-21T18:52:16.485Z,101961.97
2018-03-21T18:54:42.425Z,101966.74
2018-03-21T18:57:08.272Z,101970.55
2018-03-21T18:59:34.218Z,101962.88
2018-03-21T19:02:00.118Z,101970.25
2018-03-21T19:04:26.036Z,101962.02
2018-03-21T19:06:51.885Z,101962.58
2018-03-21T19:09:17.795Z,101957.67
2018-03-21T19:11:43.874Z,101954.91
2018-03-21T19:14:09.895Z,101957.70
2018-03-21T19:16:35.797Z,101948.31
2018-03-21T19:19:01.745Z,101949.22
2018-03-21T19:21:27.660Z,101952.37
2018-03-21T19:23:53.613Z,101947.11
2018-03-21T19:26:19.464Z,101945.20
2018-03-21T19:28:45.317Z,101948.25
2018-03-21T19:31:11.271Z,101942.83
2018-03-21T19:33:37.111Z,101948.46
2018-03-21T19:36:02.973Z,101941.14
2018-03-21T19:38:28.867Z,101938.05
2018-03-21T19:40:54.819Z,101944.31
2018-03-21T19:43:20.662Z,101937.41
2018-03-21T19:45:46.588Z,101939.64
2018-03-21T19:48:12.518Z,101932.09
2018-03-21T19:50:38.367Z,101932.53
2018-03-21T19:53:04.253Z,101939.45
2018-03-21T19:55:30.101Z,101944.93
2018-03-21T19:57:55.944Z,101936.99
2018-03-21T20:00:21.860Z,101942.45
2018-03-21T20:02:47.738Z,101936.18
2018-03-21T20:05:13.589Z,101936.48
2018-03-21T20:07:39.487Z,101928.79
2018-03-21T20:10:05.356Z,101925.33
2018-03-21T20:12:31.213Z,101927.98
2018-03-21T20:14:57.113Z,101922.02
2018-03-21T20:17:22.970Z,101916.83
2018-03-21T20:19:48.955Z,101907.56
2018-03-21T20:22:14.864Z,101915.11
2018-03-21T20:24:40.928Z,101909.32
2018-03-21T20:27:06.804Z,101904.91
2018-03-21T20:29:33.625Z,101901.08
2018-03-21T20:31:59.499Z,101901.38
2018-03-21T20:34:25.350Z,101902.90
2018-03-21T20:36:51.302Z,101894.46
2018-03-21T20:39:17.117Z,101905.55
2018-03-21T20:41:42.966Z,101897.13
2018-03-21T20:44:08.870Z,101900.68
2018-03-21T20:46:34.726Z,101899.88
2018-03-21T20:49:00.573Z,101888.01
2018-03-21T20:51:26.473Z,101887.56
2018-03-21T20:53:52.320Z,101886.66
2018-03-21T20:56:18.171Z,101888.53
2018-03-21T20:58:44.057Z,101880.31
2018-03-21T21:01:09.912Z,101879.56
2018-03-21T21:03:35.760Z,101884.83
2018-03-21T21:06:01.653Z,101884.87
2018-03-21T21:08:27.518Z,101882.85
2018-03-21T21:10:53.368Z,101874.31
2018-03-21T21:13:19.260Z,101876.41
2018-03-21T21:15:45.114Z,101879.05
2018-03-21T21:18:10.954Z,101872.41
2018-03-21T21:20:36.852Z,101872.34
2018-03-21T21:23:02.731Z,101864.04
2018-03-21T21:25:28.641Z,101857.69
2018-03-21T21:27:54.545Z,101855.55
2018-03-21T21:30:20.401Z,101851.24
2018-03-21T21:32:46.252Z,101851.66
2018-03-21T21:35:12.136Z,101848.97
2018-03-21T21:37:38.066Z,101851.09
2018-03-21T21:40:03.928Z,101842.67
2018-03-21T21:42:29.817Z,101843.14
2018-03-21T21:44:55.741Z,101842.80
2018-03-21T21:47:21.565Z,101839.17
2018-03-21T21:49:47.461Z,101838.64
2018-03-21T21:52:13.318Z,101841.11
2018-03-21T21:54:39.169Z,101837.22
2018-03-21T21:57:05.064Z,101833.87
2018-03-21T21:59:30.917Z,101826.25
2018-03-21T22:01:56.764Z,101827.43
2018-03-21T22:04:22.658Z,101829.75
2018-03-21T22:06:48.521Z,101829.53
2018-03-21T22:09:15.030Z,101827.82
2018-03-21T22:11:40.918Z,101826.41
2018-03-21T22:14:06.773Z,101821.75
2018-03-21T22:16:32.612Z,101812.30
2018-03-21T22:18:58.530Z,101809.61
2018-03-21T22:21:24.385Z,101802.81
2018-03-21T22:23:50.229Z,101809.22
2018-03-21T22:26:16.168Z,101804.09
2018-03-21T22:28:42.004Z,101799.34
2018-03-21T22:31:07.861Z,101801.85
2018-03-21T22:33:33.773Z,101802.34
2018-03-21T22:35:59.618Z,101798.02
2018-03-21T22:38:25.470Z,101785.48
2018-03-21T22:40:51.433Z,101776.77
2018-03-21T22:43:17.269Z,101771.89
2018-03-21T22:45:43.117Z,101775.76
2018-03-21T22:48:09.043Z,101771.83
2018-03-21T22:50:34.893Z,101769.86
2018-03-21T22:53:00.731Z,101775.55
2018-03-21T22:55:26.629Z,101766.92
2018-03-21T22:57:52.489Z,101766.58
2018-03-21T23:00:18.337Z,101766.20
2018-03-21T23:02:44.233Z,101760.67
2018-03-21T23:05:10.129Z,101757.94
2018-03-21T23:07:35.986Z,101759.65
2018-03-21T23:10:01.890Z,101753.19
2018-03-21T23:12:27.750Z,101750.53
2018-03-21T23:14:53.622Z,101750.61
2018-03-21T23:17:19.567Z,101749.90
2018-03-21T23:19:45.426Z,101753.59
2018-03-21T23:22:11.272Z,101751.84
2018-03-21T23:24:37.164Z,101746.22
2018-03-21T23:27:03.086Z,101752.70
2018-03-21T23:29:28.933Z,101743.97
2018-03-21T23:31:54.824Z,101738.80
2018-03-21T23:34:20.674Z,101735.20
2018-03-21T23:36:46.523Z,101721.94
2018-03-21T23:39:12.421Z,101724.87
2018-03-21T23:41:38.277Z,101728.05
2018-03-21T23:44:04.137Z,101716.33
2018-03-21T23:46:30.034Z,101719.39
2018-03-21T23:48:55.888Z,101717.41
2018-03-21T23:51:21.741Z,101718.92
2018-03-21T23:53:47.633Z,101709.33
2018-03-21T23:56:13.490Z,101715.06
2018-03-21T23:58:39.353Z,101704.30
